sensor_id;sensor_type;location;lat;lon;timestamp;temperature;humidity
14737;DHT22;7459;53.590;10.062;2022-10-31T00:00:30;14.20;99.90
14737;DHT22;7459;53.590;10.062;2022-10-31T00:02:56;14.30;99.90
14737;DHT22;7459;53.590;10.062;2022-10-31T00:05:22;14.30;99.90
14737;DHT22;7459;53.590;10.062;2022-10-31T00:07:51;14.30;99.90
14737;DHT22;7459;53.590;10.062;2022-10-31T00:10:17;14.30;99.90
14737;DHT22;7459;53.590;10.062;2022-10-31T00:12:43;14.30;99.90
14737;DHT22;7459;53.590;10.062;2022-10-31T00:15:08;14.30;99.90
14737;DHT22;7459;53.590;10.062;2022-10-31T00:17:35;14.30;99.90
14737;DHT22;7459;53.590;10.062;2022-10-31T00:20:01;14.40;99.90
14737;DHT22;7459;53.590;10.062;2022-10-31T00:22:27;14.30;99.90
14737;DHT22;7459;53.590;10.062;2022-10-31T00:24:53;14.30;99.90
14737;DHT22;7459;53.590;10.062;2022-10-31T00:27:18;14.30;99.90
14737;DHT22;7459;53.590;10.062;2022-10-31T00:29:44;14.40;99.90
14737;DHT22;7459;53.590;10.062;2022-10-31T00:32:09;14.40;99.90
14737;DHT22;7459;53.590;10.062;2022-10-31T00:34:35;14.40;99.90
14737;DHT22;7459;53.590;10.062;2022-10-31T00:37:01;14.40;99.90
14737;DHT22;7459;53.590;10.062;2022-10-31T00:39:26;14.50;99.90
14737;DHT22;7459;53.590;10.062;2022-10-31T00:41:52;14.50;99.90
14737;DHT22;7459;53.590;10.062;2022-10-31T00:44:18;14.50;99.90
14737;DHT22;7459;53.590;10.062;2022-10-31T00:46:43;14.50;99.90
14737;DHT22;7459;53.590;10.062;2022-10-31T00:49:09;14.60;99.90
14737;DHT22;7459;53.590;10.062;2022-10-31T00:51:35;14.60;99.90
14737;DHT22;7459;53.590;10.062;2022-10-31T00:54:01;14.70;99.90
14737;DHT22;7459;53.590;10.062;2022-10-31T00:56:26;14.70;99.90
14737;DHT22;7459;53.590;10.062;2022-10-31T00:58:52;14.70;99.90
14737;DHT22;7459;53.590;10.062;2022-10-31T01:01:18;14.70;99.90
14737;DHT22;7459;53.590;10.062;2022-10-31T01:03:44;14.70;99.90
14737;DHT22;7459;53.590;10.062;2022-10-31T01:06:12;14.80;99.90
14737;DHT22;7459;53.590;10.062;2022-10-31T01:08:38;14.90;99.90
14737;DHT22;7459;53.590;10.062;2022-10-31T01:11:09;14.90;99.90
14737;DHT22;7459;53.590;10.062;2022-10-31T01:13:37;14.90;99.90
14737;DHT22;7459;53.590;10.062;2022-10-31T01:16:04;14.90;99.90
14737;DHT22;7459;53.590;10.062;2022-10-31T01:18:31;14.90;99.90
14737;DHT22;7459;53.590;10.062;2022-10-31T01:20:58;14.90;99.90
14737;DHT22;7459;53.590;10.062;2022-10-31T01:23:24;14.90;99.90
14737;DHT22;7459;53.590;10.062;2022-10-31T01:26:02;14.90;99.90
14737;DHT22;7459;53.590;10.062;2022-10-31T01:28:29;14.90;99.90
14737;DHT22;7459;53.590;10.062;2022-10-31T01:30:55;14.90;99.90
14737;DHT22;7459;53.590;10.062;2022-10-31T01:33:21;14.90;99.90
14737;DHT22;7459;53.590;10.062;2022-10-31T01:35:46;14.90;99.90
14737;DHT22;7459;53.590;10.062;2022-10-31T01:38:12;14.90;99.90
14737;DHT22;7459;53.590;10.062;2022-10-31T01:40:37;14.90;99.90
14737;DHT22;7459;53.590;10.062;2022-10-31T01:43:03;14.90;99.90
14737;DHT22;7459;53.590;10.062;2022-10-31T01:45:29;14.90;99.90
14737;DHT22;7459;53.590;10.062;2022-10-31T01:47:55;14.90;99.90
14737;DHT22;7459;53.590;10.062;2022-10-31T01:50:41;14.90;99.90
14737;DHT22;7459;53.590;10.062;2022-10-31T01:53:10;14.90;99.90
14737;DHT22;7459;53.590;10.062;2022-10-31T01:55:42;14.90;99.90
14737;DHT22;7459;53.590;10.062;2022-10-31T01:58:24;14.90;99.90
14737;DHT22;7459;53.590;10.062;2022-10-31T02:00:54;14.90;99.90
14737;DHT22;7459;53.590;10.062;2022-10-31T02:03:22;14.90;99.90
14737;DHT22;7459;53.590;10.062;2022-10-31T02:05:48;14.90;99.90
14737;DHT22;7459;53.590;10.062;2022-10-31T02:08:26;14.90;99.90
14737;DHT22;7459;53.590;10.062;2022-10-31T02:10:54;14.90;99.90
14737;DHT22;7459;53.590;10.062;2022-10-31T02:13:22;14.90;99.90
14737;DHT22;7459;53.590;10.062;2022-10-31T02:15:52;14.90;99.90
14737;DHT22;7459;53.590;10.062;2022-10-31T02:18:20;14.80;99.90
14737;DHT22;7459;53.590;10.062;2022-10-31T02:29:43;14.80;99.90
14737;DHT22;7459;53.590;10.062;2022-10-31T02:32:25;14.80;99.90
14737;DHT22;7459;53.590;10.062;2022-10-31T02:37:49;14.90;99.90
14737;DHT22;7459;53.590;10.062;2022-10-31T02:41:01;14.80;99.90
14737;DHT22;7459;53.590;10.062;2022-10-31T02:46:45;14.80;99.90
14737;DHT22;7459;53.590;10.062;2022-10-31T02:49:31;14.80;99.90
14737;DHT22;7459;53.590;10.062;2022-10-31T02:52:00;14.80;99.90
14737;DHT22;7459;53.590;10.062;2022-10-31T02:54:27;14.70;99.90
14737;DHT22;7459;53.590;10.062;2022-10-31T02:57:03;14.70;99.90
14737;DHT22;7459;53.590;10.062;2022-10-31T02:59:32;14.70;99.90
14737;DHT22;7459;53.590;10.062;2022-10-31T03:08:06;14.60;99.90
14737;DHT22;7459;53.590;10.062;2022-10-31T03:10:58;14.60;99.90
14737;DHT22;7459;53.590;10.062;2022-10-31T03:16:20;14.50;99.90
14737;DHT22;7459;53.590;10.062;2022-10-31T03:19:04;14.50;99.90
14737;DHT22;7459;53.590;10.062;2022-10-31T03:21:44;14.50;99.90
14737;DHT22;7459;53.590;10.062;2022-10-31T03:24:13;14.50;99.90
14737;DHT22;7459;53.590;10.062;2022-10-31T03:26:49;14.50;99.90
14737;DHT22;7459;53.590;10.062;2022-10-31T03:29:20;14.40;99.90
14737;DHT22;7459;53.590;10.062;2022-10-31T03:31:53;14.40;99.90
14737;DHT22;7459;53.590;10.062;2022-10-31T03:34:21;14.40;99.90
14737;DHT22;7459;53.590;10.062;2022-10-31T03:36:50;14.40;99.90
14737;DHT22;7459;53.590;10.062;2022-10-31T03:39:20;14.40;99.90
14737;DHT22;7459;53.590;10.062;2022-10-31T03:41:54;14.30;99.90
14737;DHT22;7459;53.590;10.062;2022-10-31T03:44:24;14.30;99.90
14737;DHT22;7459;53.590;10.062;2022-10-31T03:46:51;14.30;99.90
14737;DHT22;7459;53.590;10.062;2022-10-31T03:49:17;14.20;99.90
14737;DHT22;7459;53.590;10.062;2022-10-31T03:54:52;14.20;99.90
14737;DHT22;7459;53.590;10.062;2022-10-31T03:57:37;14.20;99.90
14737;DHT22;7459;53.590;10.062;2022-10-31T04:00:06;14.20;99.90
14737;DHT22;7459;53.590;10.062;2022-10-31T04:02:35;14.10;99.90
14737;DHT22;7459;53.590;10.062;2022-10-31T04:05:04;14.10;99.90
14737;DHT22;7459;53.590;10.062;2022-10-31T04:07:35;14.10;99.90
14737;DHT22;7459;53.590;10.062;2022-10-31T04:10:06;14.10;99.90
14737;DHT22;7459;53.590;10.062;2022-10-31T04:12:34;14.10;99.90
14737;DHT22;7459;53.590;10.062;2022-10-31T04:15:02;14.10;99.90
14737;DHT22;7459;53.590;10.062;2022-10-31T04:17:31;14.10;99.90
14737;DHT22;7459;53.590;10.062;2022-10-31T04:19:59;14.10;99.90
14737;DHT22;7459;53.590;10.062;2022-10-31T04:22:26;14.00;99.90
14737;DHT22;7459;53.590;10.062;2022-10-31T04:24:51;14.00;99.90
14737;DHT22;7459;53.590;10.062;2022-10-31T04:27:17;14.00;99.90
14737;DHT22;7459;53.590;10.062;2022-10-31T04:29:43;14.00;99.90
14737;DHT22;7459;53.590;10.062;2022-10-31T04:32:09;14.00;99.90
14737;DHT22;7459;53.590;10.062;2022-10-31T04:34:34;14.00;99.90
14737;DHT22;7459;53.590;10.062;2022-10-31T04:37:00;14.00;99.90
14737;DHT22;7459;53.590;10.062;2022-10-31T04:39:26;14.00;99.90
14737;DHT22;7459;53.590;10.062;2022-10-31T04:41:51;14.10;99.90
14737;DHT22;7459;53.590;10.062;2022-10-31T04:44:17;14.00;99.90
14737;DHT22;7459;53.590;10.062;2022-10-31T04:46:43;14.10;99.90
14737;DHT22;7459;53.590;10.062;2022-10-31T04:49:08;14.10;99.90
14737;DHT22;7459;53.590;10.062;2022-10-31T04:51:34;14.10;99.90
14737;DHT22;7459;53.590;10.062;2022-10-31T04:54:00;14.00;99.90
14737;DHT22;7459;53.590;10.062;2022-10-31T04:56:26;14.00;99.90
14737;DHT22;7459;53.590;10.062;2022-10-31T04:58:51;14.00;99.90
14737;DHT22;7459;53.590;10.062;2022-10-31T05:01:17;14.00;99.90
14737;DHT22;7459;53.590;10.062;2022-10-31T05:03:43;13.90;99.90
14737;DHT22;7459;53.590;10.062;2022-10-31T05:06:09;13.90;99.90
14737;DHT22;7459;53.590;10.062;2022-10-31T05:08:34;13.90;99.90
14737;DHT22;7459;53.590;10.062;2022-10-31T05:11:02;13.90;99.90
14737;DHT22;7459;53.590;10.062;2022-10-31T05:13:29;14.00;99.90
14737;DHT22;7459;53.590;10.062;2022-10-31T05:15:55;14.00;99.90
14737;DHT22;7459;53.590;10.062;2022-10-31T05:18:21;14.00;99.90
14737;DHT22;7459;53.590;10.062;2022-10-31T05:20:47;14.00;99.90
14737;DHT22;7459;53.590;10.062;2022-10-31T05:23:13;13.90;99.90
14737;DHT22;7459;53.590;10.062;2022-10-31T05:25:39;13.90;99.90
14737;DHT22;7459;53.590;10.062;2022-10-31T05:28:06;13.90;99.90
14737;DHT22;7459;53.590;10.062;2022-10-31T05:30:32;13.90;99.90
14737;DHT22;7459;53.590;10.062;2022-10-31T05:32:59;14.00;99.90
14737;DHT22;7459;53.590;10.062;2022-10-31T05:35:27;14.00;99.90
14737;DHT22;7459;53.590;10.062;2022-10-31T05:37:55;13.90;99.90
14737;DHT22;7459;53.590;10.062;2022-10-31T05:40:21;14.00;99.90
14737;DHT22;7459;53.590;10.062;2022-10-31T05:42:50;14.00;99.90
14737;DHT22;7459;53.590;10.062;2022-10-31T05:45:17;13.90;99.90
14737;DHT22;7459;53.590;10.062;2022-10-31T05:47:55;14.00;99.90
14737;DHT22;7459;53.590;10.062;2022-10-31T05:50:26;14.00;99.90
14737;DHT22;7459;53.590;10.062;2022-10-31T05:53:00;14.00;99.90
14737;DHT22;7459;53.590;10.062;2022-10-31T05:55:28;14.00;99.90
14737;DHT22;7459;53.590;10.062;2022-10-31T05:57:55;14.00;99.90
14737;DHT22;7459;53.590;10.062;2022-10-31T06:00:21;14.00;99.90
14737;DHT22;7459;53.590;10.062;2022-10-31T06:02:48;14.00;99.90
14737;DHT22;7459;53.590;10.062;2022-10-31T06:05:14;13.90;99.90
14737;DHT22;7459;53.590;10.062;2022-10-31T06:07:41;13.90;99.90
14737;DHT22;7459;53.590;10.062;2022-10-31T06:10:08;13.90;99.90
14737;DHT22;7459;53.590;10.062;2022-10-31T06:12:35;13.90;99.90
14737;DHT22;7459;53.590;10.062;2022-10-31T06:15:06;13.90;99.90
14737;DHT22;7459;53.590;10.062;2022-10-31T06:17:34;13.90;99.90
14737;DHT22;7459;53.590;10.062;2022-10-31T06:20:00;13.90;99.90
14737;DHT22;7459;53.590;10.062;2022-10-31T06:22:26;14.00;99.90
14737;DHT22;7459;53.590;10.062;2022-10-31T06:24:52;13.90;99.90
14737;DHT22;7459;53.590;10.062;2022-10-31T06:27:17;13.90;99.90
14737;DHT22;7459;53.590;10.062;2022-10-31T06:29:43;13.90;99.90
14737;DHT22;7459;53.590;10.062;2022-10-31T06:32:11;14.00;99.90
14737;DHT22;7459;53.590;10.062;2022-10-31T06:34:38;13.90;99.90
14737;DHT22;7459;53.590;10.062;2022-10-31T06:37:09;14.00;99.90
14737;DHT22;7459;53.590;10.062;2022-10-31T06:39:35;14.00;99.90
14737;DHT22;7459;53.590;10.062;2022-10-31T06:42:02;14.00;99.90
14737;DHT22;7459;53.590;10.062;2022-10-31T06:44:28;14.00;99.90
14737;DHT22;7459;53.590;10.062;2022-10-31T06:46:54;14.00;99.90
14737;DHT22;7459;53.590;10.062;2022-10-31T06:49:20;13.90;99.90
14737;DHT22;7459;53.590;10.062;2022-10-31T06:51:49;13.90;99.90
14737;DHT22;7459;53.590;10.062;2022-10-31T06:54:15;13.90;99.90
14737;DHT22;7459;53.590;10.062;2022-10-31T06:56:41;13.90;99.90
14737;DHT22;7459;53.590;10.062;2022-10-31T06:59:07;13.90;99.90
14737;DHT22;7459;53.590;10.062;2022-10-31T07:01:32;13.90;99.90
14737;DHT22;7459;53.590;10.062;2022-10-31T07:03:58;14.00;99.90
14737;DHT22;7459;53.590;10.062;2022-10-31T07:06:24;13.90;99.90
14737;DHT22;7459;53.590;10.062;2022-10-31T07:08:50;13.90;99.90
14737;DHT22;7459;53.590;10.062;2022-10-31T07:11:15;13.80;99.90
14737;DHT22;7459;53.590;10.062;2022-10-31T07:13:41;13.80;99.90
14737;DHT22;7459;53.590;10.062;2022-10-31T07:16:07;13.80;99.90
14737;DHT22;7459;53.590;10.062;2022-10-31T07:18:34;13.80;99.90
14737;DHT22;7459;53.590;10.062;2022-10-31T07:20:59;13.90;99.90
14737;DHT22;7459;53.590;10.062;2022-10-31T07:23:25;13.80;99.90
14737;DHT22;7459;53.590;10.062;2022-10-31T07:25:57;13.80;99.90
14737;DHT22;7459;53.590;10.062;2022-10-31T07:28:25;13.80;99.90
14737;DHT22;7459;53.590;10.062;2022-10-31T07:30:52;13.80;99.90
14737;DHT22;7459;53.590;10.062;2022-10-31T07:33:19;13.80;99.90
14737;DHT22;7459;53.590;10.062;2022-10-31T07:35:45;13.80;99.90
14737;DHT22;7459;53.590;10.062;2022-10-31T07:38:12;13.90;99.90
14737;DHT22;7459;53.590;10.062;2022-10-31T07:40:40;13.90;99.90
14737;DHT22;7459;53.590;10.062;2022-10-31T07:43:06;13.90;99.90
14737;DHT22;7459;53.590;10.062;2022-10-31T07:45:32;13.90;99.90
14737;DHT22;7459;53.590;10.062;2022-10-31T07:47:58;13.90;99.90
14737;DHT22;7459;53.590;10.062;2022-10-31T07:50:26;13.90;99.90
14737;DHT22;7459;53.590;10.062;2022-10-31T07:53:07;13.90;99.90
14737;DHT22;7459;53.590;10.062;2022-10-31T07:55:35;13.90;99.90
14737;DHT22;7459;53.590;10.062;2022-10-31T07:58:03;13.90;99.90
14737;DHT22;7459;53.590;10.062;2022-10-31T08:00:31;13.90;99.90
14737;DHT22;7459;53.590;10.062;2022-10-31T08:03:04;13.90;99.90
14737;DHT22;7459;53.590;10.062;2022-10-31T08:05:34;14.00;99.90
14737;DHT22;7459;53.590;10.062;2022-10-31T08:08:01;14.00;99.90
14737;DHT22;7459;53.590;10.062;2022-10-31T08:10:27;14.00;99.90
14737;DHT22;7459;53.590;10.062;2022-10-31T08:12:57;14.00;99.90
14737;DHT22;7459;53.590;10.062;2022-10-31T08:15:25;13.90;99.90
14737;DHT22;7459;53.590;10.062;2022-10-31T08:17:50;14.00;99.90
14737;DHT22;7459;53.590;10.062;2022-10-31T08:20:16;14.00;99.90
14737;DHT22;7459;53.590;10.062;2022-10-31T08:22:42;14.00;99.90
14737;DHT22;7459;53.590;10.062;2022-10-31T08:25:08;14.00;99.90
14737;DHT22;7459;53.590;10.062;2022-10-31T08:27:34;14.00;99.90
14737;DHT22;7459;53.590;10.062;2022-10-31T08:30:00;14.00;99.90
14737;DHT22;7459;53.590;10.062;2022-10-31T08:32:26;14.00;99.90
14737;DHT22;7459;53.590;10.062;2022-10-31T08:34:52;14.00;99.90
14737;DHT22;7459;53.590;10.062;2022-10-31T08:37:18;14.00;99.90
14737;DHT22;7459;53.590;10.062;2022-10-31T08:39:48;14.00;99.90
14737;DHT22;7459;53.590;10.062;2022-10-31T08:42:13;14.10;99.90
14737;DHT22;7459;53.590;10.062;2022-10-31T08:44:39;14.20;99.90
14737;DHT22;7459;53.590;10.062;2022-10-31T08:47:05;14.20;99.90
14737;DHT22;7459;53.590;10.062;2022-10-31T08:49:31;14.20;99.90
14737;DHT22;7459;53.590;10.062;2022-10-31T08:51:56;14.20;99.90
14737;DHT22;7459;53.590;10.062;2022-10-31T08:54:22;14.20;99.90
14737;DHT22;7459;53.590;10.062;2022-10-31T08:56:48;14.20;99.90
14737;DHT22;7459;53.590;10.062;2022-10-31T08:59:13;14.20;99.90
14737;DHT22;7459;53.590;10.062;2022-10-31T09:01:39;14.20;99.90
14737;DHT22;7459;53.590;10.062;2022-10-31T09:04:05;14.20;99.90
14737;DHT22;7459;53.590;10.062;2022-10-31T09:06:30;14.30;99.90
14737;DHT22;7459;53.590;10.062;2022-10-31T09:08:56;14.30;99.90
14737;DHT22;7459;53.590;10.062;2022-10-31T09:11:22;14.20;99.90
14737;DHT22;7459;53.590;10.062;2022-10-31T09:13:47;14.30;99.90
14737;DHT22;7459;53.590;10.062;2022-10-31T09:16:13;14.30;99.90
14737;DHT22;7459;53.590;10.062;2022-10-31T09:18:39;14.30;99.90
14737;DHT22;7459;53.590;10.062;2022-10-31T09:21:04;14.40;99.90
14737;DHT22;7459;53.590;10.062;2022-10-31T09:23:30;14.40;99.90
14737;DHT22;7459;53.590;10.062;2022-10-31T09:26:01;14.40;99.90
14737;DHT22;7459;53.590;10.062;2022-10-31T09:28:27;14.50;99.90
14737;DHT22;7459;53.590;10.062;2022-10-31T09:30:53;14.50;99.90
14737;DHT22;7459;53.590;10.062;2022-10-31T09:33:20;14.50;99.90
14737;DHT22;7459;53.590;10.062;2022-10-31T09:35:46;14.50;99.90
14737;DHT22;7459;53.590;10.062;2022-10-31T09:38:14;14.50;99.90
14737;DHT22;7459;53.590;10.062;2022-10-31T09:40:43;14.50;99.90
14737;DHT22;7459;53.590;10.062;2022-10-31T09:43:18;14.50;99.90
14737;DHT22;7459;53.590;10.062;2022-10-31T09:52:24;14.60;99.90
14737;DHT22;7459;53.590;10.062;2022-10-31T09:55:13;14.50;99.90
14737;DHT22;7459;53.590;10.062;2022-10-31T09:57:42;14.60;99.90
14737;DHT22;7459;53.590;10.062;2022-10-31T10:00:18;14.60;99.90
14737;DHT22;7459;53.590;10.062;2022-10-31T10:05:49;14.60;99.90
14737;DHT22;7459;53.590;10.062;2022-10-31T10:08:26;14.50;99.90
14737;DHT22;7459;53.590;10.062;2022-10-31T10:11:08;14.60;99.90
14737;DHT22;7459;53.590;10.062;2022-10-31T10:13:54;14.60;99.90
14737;DHT22;7459;53.590;10.062;2022-10-31T10:16:58;14.60;99.90
14737;DHT22;7459;53.590;10.062;2022-10-31T10:23:07;14.70;99.90
14737;DHT22;7459;53.590;10.062;2022-10-31T10:25:57;14.70;99.90
14737;DHT22;7459;53.590;10.062;2022-10-31T10:28:30;14.70;99.90
14737;DHT22;7459;53.590;10.062;2022-10-31T10:31:14;14.70;99.90
14737;DHT22;7459;53.590;10.062;2022-10-31T10:36:54;14.80;99.90
14737;DHT22;7459;53.590;10.062;2022-10-31T10:39:24;14.80;99.90
14737;DHT22;7459;53.590;10.062;2022-10-31T10:41:52;14.80;99.90
14737;DHT22;7459;53.590;10.062;2022-10-31T10:44:45;14.80;99.90
14737;DHT22;7459;53.590;10.062;2022-10-31T10:47:41;14.80;99.90
14737;DHT22;7459;53.590;10.062;2022-10-31T10:50:18;14.80;99.90
14737;DHT22;7459;53.590;10.062;2022-10-31T10:52:59;14.80;99.90
14737;DHT22;7459;53.590;10.062;2022-10-31T10:56:00;14.80;99.90
14737;DHT22;7459;53.590;10.062;2022-10-31T10:58:29;14.90;99.90
14737;DHT22;7459;53.590;10.062;2022-10-31T11:00:55;14.80;99.90
14737;DHT22;7459;53.590;10.062;2022-10-31T11:03:21;14.80;99.90
14737;DHT22;7459;53.590;10.062;2022-10-31T11:05:55;14.80;99.90
14737;DHT22;7459;53.590;10.062;2022-10-31T11:08:25;14.80;99.90
14737;DHT22;7459;53.590;10.062;2022-10-31T11:11:00;14.80;99.90
14737;DHT22;7459;53.590;10.062;2022-10-31T11:13:42;14.90;99.90
14737;DHT22;7459;53.590;10.062;2022-10-31T11:16:12;15.00;99.90
14737;DHT22;7459;53.590;10.062;2022-10-31T11:18:46;15.00;99.90
14737;DHT22;7459;53.590;10.062;2022-10-31T11:21:28;15.10;99.90
14737;DHT22;7459;53.590;10.062;2022-10-31T11:26:36;15.20;99.90
14737;DHT22;7459;53.590;10.062;2022-10-31T11:29:04;15.20;99.90
14737;DHT22;7459;53.590;10.062;2022-10-31T11:31:32;15.20;99.90
14737;DHT22;7459;53.590;10.062;2022-10-31T11:34:06;15.20;99.90
14737;DHT22;7459;53.590;10.062;2022-10-31T11:36:39;15.20;99.90
14737;DHT22;7459;53.590;10.062;2022-10-31T11:39:19;15.20;99.90
14737;DHT22;7459;53.590;10.062;2022-10-31T11:41:47;15.10;99.90
14737;DHT22;7459;53.590;10.062;2022-10-31T11:44:27;15.00;99.90
14737;DHT22;7459;53.590;10.062;2022-10-31T11:46:59;15.00;99.90
14737;DHT22;7459;53.590;10.062;2022-10-31T11:49:38;15.00;99.90
14737;DHT22;7459;53.590;10.062;2022-10-31T11:52:23;14.90;99.90
14737;DHT22;7459;53.590;10.062;2022-10-31T11:55:14;14.90;99.90
14737;DHT22;7459;53.590;10.062;2022-10-31T11:57:50;14.90;99.90
14737;DHT22;7459;53.590;10.062;2022-10-31T12:00:22;14.90;99.90
14737;DHT22;7459;53.590;10.062;2022-10-31T12:03:26;14.90;99.90
14737;DHT22;7459;53.590;10.062;2022-10-31T12:06:09;14.90;99.90
14737;DHT22;7459;53.590;10.062;2022-10-31T12:08:40;14.90;99.90
14737;DHT22;7459;53.590;10.062;2022-10-31T12:14:00;14.90;99.90
14737;DHT22;7459;53.590;10.062;2022-10-31T12:22:15;14.90;99.90
14737;DHT22;7459;53.590;10.062;2022-10-31T12:28:06;14.90;99.90
14737;DHT22;7459;53.590;10.062;2022-10-31T12:40:17;15.00;99.90
14737;DHT22;7459;53.590;10.062;2022-10-31T12:58:35;15.20;99.90
14737;DHT22;7459;53.590;10.062;2022-10-31T13:01:16;15.30;99.90
14737;DHT22;7459;53.590;10.062;2022-10-31T13:06:51;15.20;99.90
14737;DHT22;7459;53.590;10.062;2022-10-31T13:09:34;15.10;99.90
14737;DHT22;7459;53.590;10.062;2022-10-31T13:12:13;15.10;99.90
14737;DHT22;7459;53.590;10.062;2022-10-31T13:15:17;15.00;99.90
14737;DHT22;7459;53.590;10.062;2022-10-31T13:17:57;15.00;99.90
14737;DHT22;7459;53.590;10.062;2022-10-31T13:20:45;15.00;99.90
14737;DHT22;7459;53.590;10.062;2022-10-31T13:23:29;15.00;99.90
14737;DHT22;7459;53.590;10.062;2022-10-31T13:26:03;15.00;99.90
14737;DHT22;7459;53.590;10.062;2022-10-31T13:28:46;15.00;99.90
14737;DHT22;7459;53.590;10.062;2022-10-31T13:31:14;15.00;99.90
14737;DHT22;7459;53.590;10.062;2022-10-31T13:33:50;15.00;99.90
14737;DHT22;7459;53.590;10.062;2022-10-31T13:36:36;14.90;99.90
14737;DHT22;7459;53.590;10.062;2022-10-31T13:39:26;14.90;99.90
14737;DHT22;7459;53.590;10.062;2022-10-31T13:42:14;14.90;99.90
14737;DHT22;7459;53.590;10.062;2022-10-31T13:44:44;15.00;99.90
14737;DHT22;7459;53.590;10.062;2022-10-31T13:47:28;15.00;99.90
14737;DHT22;7459;53.590;10.062;2022-10-31T13:50:06;15.00;99.90
14737;DHT22;7459;53.590;10.062;2022-10-31T13:52:45;15.00;99.90
14737;DHT22;7459;53.590;10.062;2022-10-31T13:58:30;15.10;99.90
14737;DHT22;7459;53.590;10.062;2022-10-31T14:01:19;15.10;99.90
14737;DHT22;7459;53.590;10.062;2022-10-31T14:04:05;15.20;99.90
14737;DHT22;7459;53.590;10.062;2022-10-31T14:06:42;15.30;99.90
14737;DHT22;7459;53.590;10.062;2022-10-31T14:09:24;15.30;99.90
14737;DHT22;7459;53.590;10.062;2022-10-31T14:11:53;15.30;99.90
14737;DHT22;7459;53.590;10.062;2022-10-31T14:14:20;15.40;99.90
14737;DHT22;7459;53.590;10.062;2022-10-31T14:16:55;15.40;99.90
14737;DHT22;7459;53.590;10.062;2022-10-31T14:19:22;15.50;99.90
14737;DHT22;7459;53.590;10.062;2022-10-31T14:21:49;15.50;99.90
14737;DHT22;7459;53.590;10.062;2022-10-31T14:29:30;15.50;99.90
14737;DHT22;7459;53.590;10.062;2022-10-31T14:32:07;15.50;99.90
14737;DHT22;7459;53.590;10.062;2022-10-31T14:40:20;15.40;99.90
14737;DHT22;7459;53.590;10.062;2022-10-31T14:52:08;15.30;99.90
14737;DHT22;7459;53.590;10.062;2022-10-31T14:54:41;15.30;99.90
14737;DHT22;7459;53.590;10.062;2022-10-31T14:57:20;15.30;99.90
14737;DHT22;7459;53.590;10.062;2022-10-31T14:59:54;15.30;99.90
14737;DHT22;7459;53.590;10.062;2022-10-31T15:02:26;15.20;99.90
14737;DHT22;7459;53.590;10.062;2022-10-31T15:04:55;15.20;99.90
14737;DHT22;7459;53.590;10.062;2022-10-31T15:07:26;15.20;99.90
14737;DHT22;7459;53.590;10.062;2022-10-31T15:10:05;15.10;99.90
14737;DHT22;7459;53.590;10.062;2022-10-31T15:12:34;15.10;99.90
14737;DHT22;7459;53.590;10.062;2022-10-31T15:15:25;15.10;99.90
14737;DHT22;7459;53.590;10.062;2022-10-31T15:17:59;15.10;99.90
14737;DHT22;7459;53.590;10.062;2022-10-31T15:20:29;15.00;99.90
14737;DHT22;7459;53.590;10.062;2022-10-31T15:22:57;15.00;99.90
14737;DHT22;7459;53.590;10.062;2022-10-31T15:25:33;15.00;99.90
14737;DHT22;7459;53.590;10.062;2022-10-31T15:27:59;15.00;99.90
14737;DHT22;7459;53.590;10.062;2022-10-31T15:30:29;15.00;99.90
14737;DHT22;7459;53.590;10.062;2022-10-31T15:32:55;15.00;99.90
14737;DHT22;7459;53.590;10.062;2022-10-31T15:35:26;15.00;99.90
14737;DHT22;7459;53.590;10.062;2022-10-31T15:37:54;15.00;99.90
14737;DHT22;7459;53.590;10.062;2022-10-31T15:40:24;15.00;99.90
14737;DHT22;7459;53.590;10.062;2022-10-31T15:42:57;15.00;99.90
14737;DHT22;7459;53.590;10.062;2022-10-31T15:45:27;15.00;99.90
14737;DHT22;7459;53.590;10.062;2022-10-31T15:48:15;14.90;99.90
14737;DHT22;7459;53.590;10.062;2022-10-31T15:50:47;14.90;99.90
14737;DHT22;7459;53.590;10.062;2022-10-31T15:53:25;14.90;99.90
14737;DHT22;7459;53.590;10.062;2022-10-31T15:56:28;14.80;99.90
14737;DHT22;7459;53.590;10.062;2022-10-31T15:58:57;14.80;99.90
14737;DHT22;7459;53.590;10.062;2022-10-31T16:01:29;14.80;99.90
14737;DHT22;7459;53.590;10.062;2022-10-31T16:04:04;14.80;99.90
14737;DHT22;7459;53.590;10.062;2022-10-31T16:06:33;14.70;99.90
14737;DHT22;7459;53.590;10.062;2022-10-31T16:08:59;14.70;99.90
14737;DHT22;7459;53.590;10.062;2022-10-31T16:11:36;14.70;99.90
14737;DHT22;7459;53.590;10.062;2022-10-31T16:14:06;14.70;99.90
14737;DHT22;7459;53.590;10.062;2022-10-31T16:16:44;14.70;99.90
14737;DHT22;7459;53.590;10.062;2022-10-31T16:19:27;14.70;99.90
14737;DHT22;7459;53.590;10.062;2022-10-31T16:22:11;14.60;99.90
14737;DHT22;7459;53.590;10.062;2022-10-31T16:24:49;14.60;99.90
14737;DHT22;7459;53.590;10.062;2022-10-31T16:27:24;14.60;99.90
14737;DHT22;7459;53.590;10.062;2022-10-31T16:29:55;14.50;99.90
14737;DHT22;7459;53.590;10.062;2022-10-31T16:32:32;14.50;99.90
14737;DHT22;7459;53.590;10.062;2022-10-31T16:37:57;14.50;99.90
14737;DHT22;7459;53.590;10.062;2022-10-31T16:40:23;14.60;99.90
14737;DHT22;7459;53.590;10.062;2022-10-31T16:42:50;14.50;99.90
14737;DHT22;7459;53.590;10.062;2022-10-31T16:45:21;14.50;99.90
14737;DHT22;7459;53.590;10.062;2022-10-31T16:47:49;14.50;99.90
14737;DHT22;7459;53.590;10.062;2022-10-31T16:52:43;14.50;99.90
14737;DHT22;7459;53.590;10.062;2022-10-31T16:55:14;14.40;99.90
14737;DHT22;7459;53.590;10.062;2022-10-31T16:57:43;14.40;99.90
14737;DHT22;7459;53.590;10.062;2022-10-31T17:00:29;14.40;99.90
14737;DHT22;7459;53.590;10.062;2022-10-31T17:02:56;14.40;99.90
14737;DHT22;7459;53.590;10.062;2022-10-31T17:05:23;14.40;99.90
14737;DHT22;7459;53.590;10.062;2022-10-31T17:07:55;14.40;99.90
14737;DHT22;7459;53.590;10.062;2022-10-31T17:10:22;14.30;99.90
14737;DHT22;7459;53.590;10.062;2022-10-31T17:12:49;14.40;99.90
14737;DHT22;7459;53.590;10.062;2022-10-31T17:15:19;14.40;99.90
14737;DHT22;7459;53.590;10.062;2022-10-31T17:17:50;14.40;99.90
14737;DHT22;7459;53.590;10.062;2022-10-31T17:20:26;14.40;99.90
14737;DHT22;7459;53.590;10.062;2022-10-31T17:22:54;14.40;99.90
14737;DHT22;7459;53.590;10.062;2022-10-31T17:25:23;14.40;99.90
14737;DHT22;7459;53.590;10.062;2022-10-31T17:27:52;14.40;99.90
14737;DHT22;7459;53.590;10.062;2022-10-31T17:30:19;14.40;99.90
14737;DHT22;7459;53.590;10.062;2022-10-31T17:32:46;14.40;99.90
14737;DHT22;7459;53.590;10.062;2022-10-31T17:35:14;14.40;99.90
14737;DHT22;7459;53.590;10.062;2022-10-31T17:37:41;14.40;99.90
14737;DHT22;7459;53.590;10.062;2022-10-31T17:40:09;14.40;99.90
14737;DHT22;7459;53.590;10.062;2022-10-31T17:42:36;14.40;99.90
14737;DHT22;7459;53.590;10.062;2022-10-31T17:45:02;14.40;99.90
14737;DHT22;7459;53.590;10.062;2022-10-31T17:47:29;14.40;99.90